createdAt,value
2023-04-16T00:02:01.949Z,8.03
2023-04-16T00:04:28.784Z,8.03
2023-04-16T00:06:55.652Z,8.01
2023-04-16T00:09:22.395Z,8.03
2023-04-16T00:11:49.003Z,8.04
2023-04-16T00:14:15.802Z,8.06
2023-04-16T00:16:42.421Z,8.07
2023-04-16T00:19:09.965Z,8.09
2023-04-16T00:21:36.851Z,8.07
2023-04-16T00:24:03.567Z,8.10
2023-04-16T00:26:30.479Z,8.03
2023-04-16T00:28:57.575Z,8.06
2023-04-16T00:31:32.376Z,8.07
2023-04-16T00:33:59.837Z,7.98
2023-04-16T00:36:27.970Z,8.00
2023-04-16T00:38:55.841Z,8.02
2023-04-16T00:41:24.838Z,7.99
2023-04-16T00:43:51.746Z,8.00
2023-04-16T00:46:21.286Z,8.01
2023-04-16T00:48:48.980Z,8.02
2023-04-16T00:51:16.111Z,8.02
2023-04-16T00:53:44.128Z,8.06
2023-04-16T00:56:12.783Z,8.03
2023-04-16T00:58:40.489Z,7.96
2023-04-16T01:01:07.276Z,7.96
2023-04-16T01:03:43.760Z,8.01
2023-04-16T01:06:11.424Z,8.01
2023-04-16T01:08:38.506Z,8.03
2023-04-16T01:11:05.427Z,8.00
2023-04-16T01:13:33.922Z,8.03
2023-04-16T01:16:02.039Z,8.03
2023-04-16T01:18:28.729Z,7.96
2023-04-16T01:20:55.674Z,7.91
2023-04-16T01:23:22.680Z,7.90
2023-04-16T01:25:49.338Z,7.85
2023-04-16T01:28:16.576Z,7.80
2023-04-16T01:30:43.876Z,7.78
2023-04-16T01:33:11.880Z,7.74
2023-04-16T01:35:39.349Z,7.73
2023-04-16T01:38:07.820Z,7.74
2023-04-16T01:40:38.425Z,7.75
2023-04-16T01:43:05.398Z,7.67
2023-04-16T01:45:33.361Z,7.60
2023-04-16T01:48:00.476Z,7.57
2023-04-16T01:50:28.666Z,7.59
2023-04-16T01:52:55.227Z,7.60
2023-04-16T01:55:22.693Z,7.59
2023-04-16T01:57:49.332Z,7.57
2023-04-16T02:00:16.349Z,7.57
2023-04-16T02:02:43.146Z,7.56
2023-04-16T02:05:10.118Z,7.48
2023-04-16T02:07:36.777Z,7.45
2023-04-16T02:10:04.750Z,7.46
2023-04-16T02:12:31.415Z,7.42
2023-04-16T02:14:58.136Z,7.43
2023-04-16T02:17:24.828Z,7.47
2023-04-16T02:19:52.041Z,7.43
2023-04-16T02:22:19.142Z,7.46
2023-04-16T02:24:46.111Z,7.43
2023-04-16T02:27:12.849Z,7.42
2023-04-16T02:29:40.521Z,7.33
2023-04-16T02:32:07.149Z,7.36
2023-04-16T02:34:34.749Z,7.35
2023-04-16T02:37:01.349Z,7.25
2023-04-16T02:39:27.939Z,7.28
2023-04-16T02:41:54.626Z,7.27
2023-04-16T02:44:21.608Z,7.29
2023-04-16T02:46:48.215Z,7.26
2023-04-16T02:49:14.816Z,7.22
2023-04-16T02:51:41.359Z,7.19
2023-04-16T02:54:07.910Z,7.17
2023-04-16T02:56:36.509Z,7.16
2023-04-16T02:59:03.196Z,7.06
2023-04-16T03:01:29.955Z,7.08
2023-04-16T03:03:56.917Z,7.03
2023-04-16T03:06:23.653Z,7.05
2023-04-16T03:08:50.332Z,7.08
2023-04-16T03:11:17.162Z,7.10
2023-04-16T03:13:43.939Z,7.07
2023-04-16T03:16:10.678Z,7.07
2023-04-16T03:18:37.256Z,7.03
2023-04-16T03:21:04.183Z,7.04
2023-04-16T03:23:30.847Z,7.02
2023-04-16T03:25:57.421Z,7.04
2023-04-16T03:28:25.643Z,6.96
2023-04-16T03:30:53.192Z,6.98
2023-04-16T03:33:21.575Z,7.03
2023-04-16T03:35:56.051Z,7.00
2023-04-16T03:38:23.665Z,7.01
2023-04-16T03:40:50.297Z,7.00
2023-04-16T03:43:16.872Z,6.98
2023-04-16T03:45:47.191Z,6.89
2023-04-16T03:48:14.025Z,6.93
2023-04-16T03:50:41.033Z,6.89
2023-04-16T03:53:08.995Z,6.90
2023-04-16T03:55:35.945Z,6.88
2023-04-16T03:58:03.452Z,6.81
2023-04-16T04:00:32.729Z,6.81
2023-04-16T04:02:59.577Z,6.78
2023-04-16T04:05:26.329Z,6.75
2023-04-16T04:07:53.171Z,6.74
2023-04-16T04:10:19.777Z,6.72
2023-04-16T04:12:46.804Z,6.73
2023-04-16T04:15:14.923Z,6.74
2023-04-16T04:17:41.544Z,6.75
2023-04-16T04:20:09.380Z,6.75
2023-04-16T04:22:36.060Z,6.75
2023-04-16T04:25:02.723Z,6.77
2023-04-16T04:27:29.265Z,6.79
2023-04-16T04:29:56.898Z,6.81
2023-04-16T04:32:25.621Z,6.80
2023-04-16T04:34:52.401Z,6.86
2023-04-16T04:37:19.052Z,6.81
2023-04-16T04:39:45.635Z,6.83
2023-04-16T04:42:12.370Z,6.85
2023-04-16T04:44:39.993Z,6.87
2023-04-16T04:47:06.579Z,6.89
2023-04-16T04:49:33.236Z,6.92
2023-04-16T04:51:59.983Z,6.96
2023-04-16T04:54:26.689Z,6.92
2023-04-16T04:56:53.578Z,6.92
2023-04-16T04:59:24.431Z,6.95
2023-04-16T05:01:51.418Z,6.98
2023-04-16T05:04:18.573Z,6.98
2023-04-16T05:06:45.788Z,7.01
2023-04-16T05:09:12.369Z,7.03
2023-04-16T05:11:39.436Z,7.01
2023-04-16T05:14:07.239Z,7.01
2023-04-16T05:16:36.691Z,7.02
2023-04-16T05:19:03.647Z,7.06
2023-04-16T05:21:30.845Z,7.15
2023-04-16T05:23:57.391Z,7.17
2023-04-16T05:26:24.006Z,7.19
2023-04-16T05:28:50.654Z,7.19
2023-04-16T05:31:17.391Z,7.19
2023-04-16T05:33:45.140Z,7.17
2023-04-16T05:36:12.671Z,7.14
2023-04-16T05:38:40.277Z,7.15
2023-04-16T05:41:08.715Z,7.14
2023-04-16T05:43:35.997Z,7.16
2023-04-16T05:46:02.734Z,7.21
2023-04-16T05:48:29.396Z,7.26
2023-04-16T05:50:56.016Z,7.32
2023-04-16T05:53:22.664Z,7.32
2023-04-16T05:55:49.290Z,7.33
2023-04-16T05:58:15.904Z,7.40
2023-04-16T06:00:42.585Z,7.46
2023-04-16T06:03:09.355Z,7.46
2023-04-16T06:05:36.420Z,7.49
2023-04-16T06:08:03.288Z,7.51
2023-04-16T06:10:30.003Z,7.55
2023-04-16T06:12:56.683Z,7.63
2023-04-16T06:15:23.248Z,7.69
2023-04-16T06:17:50.921Z,7.76
2023-04-16T06:20:17.641Z,7.93
2023-04-16T06:22:44.268Z,8.02
2023-04-16T06:25:12.733Z,8.16
2023-04-16T06:27:39.384Z,8.28
2023-04-16T06:30:11.322Z,8.33
2023-04-16T06:32:38.011Z,8.37
2023-04-16T06:35:05.442Z,8.42
2023-04-16T06:37:32.005Z,8.47
2023-04-16T06:39:58.572Z,8.58
2023-04-16T06:42:25.208Z,8.74
2023-04-16T06:44:52.230Z,9.28
2023-04-16T06:47:19.917Z,9.80
2023-04-16T06:49:47.844Z,10.45
2023-04-16T06:52:14.443Z,10.81
2023-04-16T06:54:41.125Z,11.11
2023-04-16T06:57:07.791Z,11.87
2023-04-16T06:59:34.374Z,12.03
2023-04-16T07:02:01.458Z,11.81
2023-04-16T07:04:28.217Z,12.00
2023-04-16T07:06:54.873Z,12.03
2023-04-16T07:09:21.444Z,12.74
2023-04-16T07:11:48.600Z,12.90
2023-04-16T07:14:15.242Z,12.80
2023-04-16T07:16:41.881Z,12.34
2023-04-16T07:19:08.987Z,12.73
2023-04-16T07:21:36.612Z,12.90
2023-04-16T07:24:03.498Z,12.76
2023-04-16T07:26:31.405Z,12.75
2023-04-16T07:28:58.070Z,13.05
2023-04-16T07:31:24.732Z,12.42
2023-04-16T07:33:51.621Z,11.76
2023-04-16T07:36:18.250Z,11.40
2023-04-16T07:38:46.616Z,11.02
2023-04-16T07:41:13.772Z,10.75
2023-04-16T07:43:40.640Z,10.57
2023-04-16T07:46:07.485Z,10.50
2023-04-16T07:48:34.190Z,10.38
2023-04-16T07:51:01.028Z,10.38
2023-04-16T07:53:27.963Z,10.45
2023-04-16T07:55:55.803Z,10.49
2023-04-16T07:58:22.654Z,10.60
2023-04-16T08:00:50.890Z,10.61
2023-04-16T08:03:18.401Z,10.65
2023-04-16T08:05:46.548Z,10.55
2023-04-16T08:08:13.128Z,10.50
2023-04-16T08:10:39.914Z,10.62
2023-04-16T08:13:06.536Z,10.64
2023-04-16T08:15:33.163Z,10.65
2023-04-16T08:17:59.898Z,10.72
2023-04-16T08:20:26.935Z,10.88
2023-04-16T08:22:54.879Z,11.06
2023-04-16T08:25:23.740Z,11.04
2023-04-16T08:27:50.548Z,11.02
2023-04-16T08:30:17.332Z,11.13
2023-04-16T08:32:44.078Z,11.26
2023-04-16T08:35:10.795Z,11.42
2023-04-16T08:37:37.437Z,11.53
2023-04-16T08:40:04.291Z,11.35
2023-04-16T08:42:41.684Z,11.20
2023-04-16T08:45:13.709Z,11.09
2023-04-16T08:47:43.137Z,10.95
2023-04-16T08:50:12.074Z,10.92
2023-04-16T08:52:46.363Z,10.90
2023-04-16T08:55:17.041Z,10.89
2023-04-16T08:57:57.993Z,10.80
2023-04-16T09:00:24.789Z,10.85
2023-04-16T09:02:52.156Z,10.90
2023-04-16T09:05:25.467Z,10.91
2023-04-16T09:07:53.482Z,10.87
2023-04-16T09:10:20.411Z,11.11
2023-04-16T09:12:47.160Z,11.45
2023-04-16T09:15:14.323Z,12.00
2023-04-16T09:17:41.779Z,12.48
2023-04-16T09:20:11.054Z,12.81
2023-04-16T09:22:38.484Z,13.02
2023-04-16T09:25:05.562Z,13.39
2023-04-16T09:27:34.844Z,13.34
2023-04-16T09:30:01.906Z,13.12
2023-04-16T09:32:29.156Z,13.04
2023-04-16T09:35:02.449Z,12.87
2023-04-16T09:37:31.136Z,12.69
2023-04-16T09:40:05.477Z,12.45
2023-04-16T09:42:34.203Z,12.30
2023-04-16T09:45:04.142Z,12.22
2023-04-16T09:47:41.313Z,12.17
2023-04-16T09:50:11.826Z,12.25
2023-04-16T09:52:39.286Z,12.28
2023-04-16T09:55:07.518Z,12.29
2023-04-16T09:57:38.162Z,12.36
2023-04-16T10:00:07.848Z,12.25
2023-04-16T10:02:36.433Z,12.11
2023-04-16T10:05:03.512Z,12.25
2023-04-16T10:07:34.567Z,12.25
2023-04-16T10:10:16.888Z,12.15
2023-04-16T10:12:46.746Z,12.10
2023-04-16T10:15:23.189Z,12.07
2023-04-16T10:18:07.439Z,12.09
2023-04-16T10:26:48.324Z,12.16
2023-04-16T10:29:26.877Z,12.21
2023-04-16T10:32:05.304Z,12.27
2023-04-16T10:34:35.594Z,12.18
2023-04-16T10:37:02.223Z,12.15
2023-04-16T10:39:32.998Z,12.18
2023-04-16T10:42:12.559Z,12.10
2023-04-16T10:44:43.455Z,12.04
2023-04-16T10:47:13.100Z,12.12
2023-04-16T10:49:43.655Z,12.27
2023-04-16T10:52:12.904Z,12.39
2023-04-16T10:54:41.553Z,12.53
2023-04-16T10:57:17.801Z,12.63
2023-04-16T10:59:45.417Z,12.73
2023-04-16T11:02:18.828Z,12.62
2023-04-16T11:04:47.877Z,12.75
2023-04-16T11:07:20.668Z,12.98
2023-04-16T11:09:56.441Z,13.19
2023-04-16T11:12:41.494Z,13.22
2023-04-16T11:15:20.365Z,13.41
2023-04-16T11:17:51.868Z,13.61
2023-04-16T11:20:21.033Z,13.54
2023-04-16T11:22:49.567Z,13.57
2023-04-16T11:25:24.408Z,13.60
2023-04-16T11:27:52.809Z,13.74
2023-04-16T11:30:34.755Z,13.98
2023-04-16T11:33:05.860Z,14.11
2023-04-16T11:35:32.502Z,14.14
2023-04-16T11:37:59.547Z,14.15
2023-04-16T11:40:30.635Z,14.28
2023-04-16T11:43:15.442Z,14.57
2023-04-16T11:46:16.233Z,14.96
2023-04-16T11:48:55.469Z,15.11
2023-04-16T11:51:23.596Z,15.08
2023-04-16T11:53:56.335Z,15.22
2023-04-16T11:56:32.606Z,15.28
2023-04-16T11:59:13.857Z,15.27
2023-04-16T12:01:46.510Z,15.50
2023-04-16T12:04:21.609Z,15.81
2023-04-16T12:07:15.794Z,15.81
2023-04-16T12:09:44.466Z,-147.77
2023-04-16T12:12:32.317Z,15.81
2023-04-16T12:15:05.733Z,-147.77
2023-04-16T12:17:34.032Z,-147.77
2023-04-16T12:20:11.807Z,-147.77
2023-04-16T12:22:40.934Z,-147.77
2023-04-16T12:25:11.992Z,-147.77
2023-04-16T12:27:54.096Z,-147.77
2023-04-16T12:30:23.546Z,-147.77
2023-04-16T12:33:11.593Z,-147.77
2023-04-16T12:35:38.422Z,-147.77
2023-04-16T12:38:05.994Z,-147.77
2023-04-16T12:40:33.454Z,-147.77
2023-04-16T12:43:00.254Z,-147.77
2023-04-16T12:45:26.994Z,-147.77
2023-04-16T12:47:53.868Z,-147.77
2023-04-16T12:50:20.476Z,-147.77
2023-04-16T12:52:47.130Z,-147.77
2023-04-16T12:55:14.304Z,-147.77
2023-04-16T12:57:42.705Z,-147.77
2023-04-16T13:00:10.911Z,-147.77
2023-04-16T13:02:38.050Z,-147.77
2023-04-16T13:05:05.367Z,-147.77
2023-04-16T13:07:35.595Z,-147.77
2023-04-16T13:10:02.623Z,-147.77
2023-04-16T13:12:29.678Z,-147.77
2023-04-16T13:14:57.735Z,-147.77
2023-04-16T13:17:24.479Z,-147.77
2023-04-16T13:19:51.184Z,-147.77
2023-04-16T13:22:18.200Z,-147.77
2023-04-16T13:24:44.836Z,-147.77
2023-04-16T13:27:12.376Z,-147.77
2023-04-16T13:29:39.119Z,-147.77
2023-04-16T13:32:06.281Z,-147.77
2023-04-16T13:34:33.076Z,-147.77
2023-04-16T13:36:59.693Z,-147.77
2023-04-16T13:39:26.294Z,-147.77
2023-04-16T13:41:54.830Z,-147.77
2023-04-16T13:44:21.577Z,-147.77
2023-04-16T13:46:49.795Z,-147.77
2023-04-16T13:49:16.684Z,-147.77
2023-04-16T13:51:44.952Z,-147.77
2023-04-16T13:54:11.712Z,-147.77
2023-04-16T13:56:38.554Z,-147.77
2023-04-16T13:59:05.540Z,-147.77
2023-04-16T14:01:34.541Z,-147.77
2023-04-16T17:29:38.927Z,12.55
2023-04-16T17:32:07.193Z,12.43
2023-04-16T17:34:35.901Z,12.32
2023-04-16T17:37:03.827Z,12.18
2023-04-16T17:39:30.509Z,12.03
2023-04-16T17:41:58.665Z,11.87
2023-04-16T17:44:27.606Z,11.74
2023-04-16T17:46:54.670Z,11.71
2023-04-16T17:49:22.930Z,11.64
2023-04-16T17:51:52.868Z,11.43
2023-04-16T17:54:20.017Z,11.33
2023-04-16T17:56:47.669Z,11.29
2023-04-16T17:59:14.534Z,11.15
2023-04-16T18:01:41.733Z,11.14
2023-04-16T18:04:09.471Z,11.08
2023-04-16T18:06:36.328Z,11.10
2023-04-16T18:09:07.596Z,11.12
2023-04-16T18:11:36.407Z,11.12
2023-04-16T18:14:05.438Z,11.08
2023-04-16T18:16:33.442Z,11.09
2023-04-16T18:19:00.184Z,11.08
2023-04-16T18:21:27.520Z,10.93
2023-04-16T18:23:54.240Z,10.84
2023-04-16T18:26:22.669Z,10.87
2023-04-16T18:28:49.774Z,10.78
2023-04-16T18:31:20.533Z,10.76
2023-04-16T18:33:57.611Z,10.77
2023-04-16T18:36:27.988Z,10.70
2023-04-16T18:39:02.279Z,10.69
2023-04-16T18:41:31.014Z,10.62
2023-04-16T18:43:57.881Z,10.62
2023-04-16T18:46:25.481Z,10.62
2023-04-16T18:48:52.465Z,10.64
2023-04-16T18:51:19.409Z,10.62
2023-04-16T18:53:46.110Z,10.60
2023-04-16T18:56:13.132Z,10.59
2023-04-16T18:58:40.154Z,10.56
2023-04-16T19:01:11.386Z,10.57
2023-04-16T19:03:38.860Z,10.56
2023-04-16T19:06:06.492Z,10.48
2023-04-16T19:08:33.191Z,10.49
2023-04-16T19:11:01.158Z,10.45
2023-04-16T19:13:30.531Z,10.39
2023-04-16T19:16:06.279Z,10.37
2023-04-16T19:18:33.224Z,10.36
2023-04-16T19:21:00.964Z,10.24
2023-04-16T19:23:29.309Z,10.23
2023-04-16T19:25:57.092Z,10.24
2023-04-16T19:28:26.352Z,10.23
2023-04-16T19:30:54.042Z,10.20
2023-04-16T19:33:23.024Z,10.17
2023-04-16T19:35:49.765Z,10.15
2023-04-16T19:38:17.187Z,10.12
2023-04-16T19:40:45.872Z,10.05
2023-04-16T19:43:13.746Z,10.01
2023-04-16T19:45:45.200Z,9.99
2023-04-16T19:48:12.413Z,9.98
2023-04-16T19:50:40.838Z,9.97
2023-04-16T19:53:08.270Z,9.99
2023-04-16T19:55:35.088Z,9.98
2023-04-16T19:58:06.176Z,10.01
2023-04-16T20:00:35.990Z,10.04
2023-04-16T20:03:03.540Z,10.00
2023-04-16T20:05:31.968Z,10.00
2023-04-16T20:07:59.694Z,9.93
2023-04-16T20:10:27.109Z,9.89
2023-04-16T20:12:54.345Z,9.88
2023-04-16T20:15:21.768Z,9.86
2023-04-16T20:17:48.555Z,9.80
2023-04-16T20:20:16.478Z,9.72
2023-04-16T20:22:43.856Z,9.68
2023-04-16T20:25:14.367Z,9.62
2023-04-16T20:27:41.080Z,9.61
2023-04-16T20:30:08.339Z,9.59
2023-04-16T20:32:34.917Z,9.62
2023-04-16T20:35:04.030Z,9.49
2023-04-16T20:37:32.468Z,9.44
2023-04-16T20:39:59.369Z,9.41
2023-04-16T20:42:27.656Z,9.39
2023-04-16T20:44:56.701Z,9.31
2023-04-16T20:47:23.637Z,9.30
2023-04-16T20:49:52.710Z,9.20
2023-04-16T20:52:19.732Z,9.15
2023-04-16T20:54:56.887Z,9.16
2023-04-16T20:57:28.630Z,9.17
2023-04-16T20:59:58.562Z,9.18
2023-04-16T21:02:29.423Z,9.18
2023-04-16T21:04:56.410Z,9.15
2023-04-16T21:07:23.002Z,9.16
2023-04-16T21:09:49.771Z,9.11
2023-04-16T21:12:16.732Z,9.03
2023-04-16T21:14:43.356Z,9.01
2023-04-16T21:17:10.104Z,9.01
2023-04-16T21:19:36.922Z,8.98
2023-04-16T21:22:03.600Z,8.93
2023-04-16T21:24:32.857Z,8.90
2023-04-16T21:26:59.459Z,8.85
2023-04-16T21:29:26.350Z,8.86
2023-04-16T21:31:53.604Z,8.83
2023-04-16T21:34:22.027Z,8.77
2023-04-16T21:36:52.459Z,8.77
2023-04-16T21:39:21.592Z,8.79
2023-04-16T21:41:48.272Z,8.78
2023-04-16T21:44:15.437Z,8.80
2023-04-16T21:46:42.166Z,8.77
2023-04-16T21:49:09.484Z,8.82
2023-04-16T21:51:37.201Z,8.85
2023-04-16T21:54:04.969Z,8.82
2023-04-16T21:56:31.635Z,8.82
2023-04-16T21:58:58.197Z,8.83
2023-04-16T22:01:25.034Z,8.84
2023-04-16T22:03:52.213Z,8.79
2023-04-16T22:06:20.486Z,8.75
2023-04-16T22:08:49.887Z,8.72
2023-04-16T22:11:33.347Z,8.75
2023-04-16T22:14:00.304Z,8.75
2023-04-16T22:16:26.938Z,8.75
2023-04-16T22:18:55.017Z,8.67
2023-04-16T22:21:21.709Z,8.64
2023-04-16T22:23:48.298Z,8.63
2023-04-16T22:26:14.932Z,8.59
2023-04-16T22:28:41.581Z,8.57
2023-04-16T22:31:08.230Z,8.54
2023-04-16T22:33:36.167Z,8.53
2023-04-16T22:36:02.767Z,8.50
2023-04-16T22:38:29.457Z,8.47
2023-04-16T22:40:56.017Z,8.47
2023-04-16T22:43:23.134Z,8.40
2023-04-16T22:45:49.763Z,8.36
2023-04-16T22:48:16.460Z,8.42
2023-04-16T22:50:48.815Z,8.43
2023-04-16T22:53:15.397Z,8.42
2023-04-16T22:55:42.020Z,8.48
2023-04-16T22:58:08.746Z,8.48
2023-04-16T23:00:35.443Z,8.49
2023-04-16T23:03:02.129Z,8.53
2023-04-16T23:05:29.160Z,8.50
2023-04-16T23:07:56.008Z,8.51
2023-04-16T23:10:22.674Z,8.50
2023-04-16T23:12:49.382Z,8.50
2023-04-16T23:15:16.187Z,8.51
2023-04-16T23:17:43.397Z,8.53
2023-04-16T23:20:10.744Z,8.53
2023-04-16T23:22:37.378Z,8.50
2023-04-16T23:25:04.230Z,8.52
2023-04-16T23:27:32.573Z,8.53
2023-04-16T23:29:59.372Z,8.54
2023-04-16T23:32:26.037Z,8.54
2023-04-16T23:34:52.629Z,8.53
2023-04-16T23:37:19.251Z,8.56
2023-04-16T23:39:45.880Z,8.61
2023-04-16T23:42:12.669Z,8.52
2023-04-16T23:44:39.536Z,8.46
2023-04-16T23:47:06.233Z,8.44
2023-04-16T23:49:33.932Z,8.40
2023-04-16T23:52:00.798Z,8.42
2023-04-16T23:54:28.565Z,8.42
2023-04-16T23:56:55.262Z,8.42
2023-04-16T23:59:21.846Z,8.43
